Aviation Digital Data Service (ADDS)

Output produced by TAFs form (0138 UTC 22 November 2017)
found at http://www.aviationweather.gov/adds/tafs/
 
METAR text: RJTU 212343Z 06003KT 9999 FEW030 SCT050 04/M03 Q1026 RMK 1CU030 3SC050 A3031
Conditions at: RJTU (UTSUNOMIYA (JGSD, JP) observed 2343 UTC 21 November 2017
Temperature: 4.0°C (39°F)
Dewpoint: -3.0°C (27°F) [RH = 60%]
Pressure (altimeter): 30.30 inches Hg (1026.0 mb)
Winds: from the ENE (60 degrees) at 3 MPH (3 knots; 1.6 m/s)
Visibility: 6 or more miles (10+ km)
Ceiling: at least 12,000 feet AGL
Clouds: few clouds at 3000 feet AGL
scattered clouds at 5000 feet AGL
Weather: no significant weather observed at this time